PWSweather.com
Personal Weather Stations
Station Observations
KMIEASTT1
Tawas Bay, East Tawas, MI 48730

Tawas BayEast Tawas, MI 48730

Lat: 44.28, Lon: -83.48

Elevation: 600

Station Type: Davis VantagePro

http://www.tawasbayweather.com

High Low Average
Temperature 30.5°F-0.8°C 20.9°F-6.2°C 25.5°F-3.6°C
Dew Point 25.7°F-3.5°C 16.8°F-8.4°C 20.8°F-6.2°C
Winds 12.0 mph 19.3 kmh Calm Calm 4.0 mph SW6.4 kmh SW
Wind Gusts 13.0 mph20.9 kmh -- 6.0 mph9.7 kmh
Humidity 89% 72% 82%
Pressure 30.37 in1028.4 mb 30.05 in1017.6 mb -
Precipitation 0.00 in0.0 mm - -
Hour Temp Dew Point Humidity Winds Wind Gusts Pressure Precip Precip Rate Daily Precip Total
12:00 AM 30.1°F-1.1°C 25.6°F-3.6°C 83% 4.0 mph W6.4 kmh W 9.0 mph14.5 kmh 30.05 in1017.6 mb 0.00 in0.0 mm 0.00 in0.0 mm 0.00 in0.0 mm
12:15 AM 30.2°F-1.0°C 25.7°F-3.5°C 83% 5.0 mph WSW8.0 kmh WSW 8.0 mph12.9 kmh 30.06 in1017.9 mb 0.00 in0.0 mm 0.00 in0.0 mm 0.00 in0.0 mm
12:30 AM 30.2°F-1.0°C 25.7°F-3.5°C 83% 5.0 mph WNW8.0 kmh WNW 8.0 mph12.9 kmh 30.07 in1018.3 mb 0.00 in0.0 mm 0.00 in0.0 mm 0.00 in0.0 mm
12:45 AM 30.1°F-1.1°C 25.6°F-3.6°C 83% 4.0 mph WNW6.4 kmh WNW 7.0 mph11.3 kmh 30.08 in1018.6 mb 0.00 in0.0 mm 0.00 in0.0 mm 0.00 in0.0 mm
01:00 AM 29.7°F-1.3°C 25.2°F-3.8°C 83% 2.0 mph W3.2 kmh W 6.0 mph9.7 kmh 30.08 in1018.6 mb 0.00 in0.0 mm 0.00 in0.0 mm 0.00 in0.0 mm
01:15 AM 29.6°F-1.3°C 25.1°F-3.8°C 83% 8.0 mph WSW12.9 kmh WSW 9.0 mph14.5 kmh 30.09 in1019.0 mb 0.00 in0.0 mm 0.00 in0.0 mm 0.00 in0.0 mm
01:30 AM 29.6°F-1.3°C 24.8°F-4.0°C 82% 3.0 mph NW4.8 kmh NW 8.0 mph12.9 kmh 30.10 in1019.3 mb 0.00 in0.0 mm 0.00 in0.0 mm 0.00 in0.0 mm
01:45 AM 29.5°F-1.4°C 24.1°F-4.4°C 80% 2.0 mph W3.2 kmh W 7.0 mph11.3 kmh 30.10 in1019.3 mb 0.00 in0.0 mm 0.00 in0.0 mm 0.00 in0.0 mm
02:01 AM 28.8°F-1.8°C 23.7°F-4.6°C 81% 2.0 mph NW3.2 kmh NW 7.0 mph11.3 kmh 30.12 in1020.0 mb 0.00 in0.0 mm 0.00 in0.0 mm 0.00 in0.0 mm
02:15 AM 28.0°F-2.2°C 22.6°F-5.2°C 80% 1.0 mph NW1.6 kmh NW 3.0 mph4.8 kmh 30.13 in1020.3 mb 0.00 in0.0 mm 0.00 in0.0 mm 0.00 in0.0 mm
02:30 AM 28.1°F-2.2°C 20.9°F-6.2°C 74% 5.0 mph NW8.0 kmh NW 7.0 mph11.3 kmh 30.14 in1020.7 mb 0.00 in0.0 mm 0.00 in0.0 mm 0.00 in0.0 mm
02:45 AM 27.3°F-2.6°C 20.1°F-6.6°C 74% 2.0 mph NW3.2 kmh NW 4.0 mph6.4 kmh 30.15 in1021.0 mb 0.00 in0.0 mm 0.00 in0.0 mm 0.00 in0.0 mm
03:00 AM 26.5°F-3.1°C 19.7°F-6.8°C 75% 2.0 mph NW3.2 kmh NW 4.0 mph6.4 kmh 30.15 in1021.0 mb 0.00 in0.0 mm 0.00 in0.0 mm 0.00 in0.0 mm
03:15 AM 28.2°F-2.1°C 20.4°F-6.4°C 72% 9.0 mph SE14.5 kmh SE 10.0 mph16.1 kmh 30.16 in1021.3 mb 0.00 in0.0 mm 0.00 in0.0 mm 0.00 in0.0 mm
03:30 AM 25.6°F-3.6°C 18.8°F-7.3°C 75% 2.0 mph NW3.2 kmh NW 3.0 mph4.8 kmh 30.16 in1021.3 mb 0.00 in0.0 mm 0.00 in0.0 mm 0.00 in0.0 mm
03:45 AM 25.4°F-3.7°C 18.6°F-7.4°C 75% 1.0 mph WNW1.6 kmh WNW 3.0 mph4.8 kmh 30.17 in1021.7 mb 0.00 in0.0 mm 0.00 in0.0 mm 0.00 in0.0 mm
04:00 AM 25.1°F-3.8°C 18.6°F-7.4°C 76% 1.0 mph WNW1.6 kmh WNW 3.0 mph4.8 kmh 30.17 in1021.7 mb 0.00 in0.0 mm 0.00 in0.0 mm 0.00 in0.0 mm
04:15 AM 24.6°F-4.1°C 18.1°F-7.7°C 76% 2.0 mph WNW3.2 kmh WNW 3.0 mph4.8 kmh 30.18 in1022.0 mb 0.00 in0.0 mm 0.00 in0.0 mm 0.00 in0.0 mm
04:30 AM 23.9°F-4.5°C 17.5°F-8.1°C 76% 1.0 mph WNW1.6 kmh WNW 2.0 mph3.2 kmh 30.18 in1022.0 mb 0.00 in0.0 mm 0.00 in0.0 mm 0.00 in0.0 mm
04:45 AM 23.9°F-4.5°C 17.8°F-7.9°C 77% Calm Calm 1.0 mph1.6 kmh 30.19 in1022.4 mb 0.00 in0.0 mm 0.00 in0.0 mm 0.00 in0.0 mm
05:00 AM 24.0°F-4.4°C 17.9°F-7.8°C 77% Calm Calm 2.0 mph3.2 kmh 30.19 in1022.4 mb 0.00 in0.0 mm 0.00 in0.0 mm 0.00 in0.0 mm
05:15 AM 23.5°F-4.7°C 17.4°F-8.1°C 77% 2.0 mph WNW3.2 kmh WNW 2.0 mph3.2 kmh 30.20 in1022.7 mb 0.00 in0.0 mm 0.00 in0.0 mm 0.00 in0.0 mm
05:30 AM 23.2°F-4.9°C 17.4°F-8.1°C 78% 2.0 mph WNW3.2 kmh WNW 2.0 mph3.2 kmh 30.21 in1023.0 mb 0.00 in0.0 mm 0.00 in0.0 mm 0.00 in0.0 mm
05:45 AM 22.9°F-5.1°C 17.1°F-8.3°C 78% 1.0 mph WNW1.6 kmh WNW 4.0 mph6.4 kmh 30.21 in1023.0 mb 0.00 in0.0 mm 0.00 in0.0 mm 0.00 in0.0 mm
06:00 AM 22.6°F-5.2°C 17.1°F-8.3°C 79% 1.0 mph WNW1.6 kmh WNW 2.0 mph3.2 kmh 30.20 in1022.7 mb 0.00 in0.0 mm 0.00 in0.0 mm 0.00 in0.0 mm
06:15 AM 22.6°F-5.2°C 17.4°F-8.1°C 80% 3.0 mph WNW4.8 kmh WNW 3.0 mph4.8 kmh 30.20 in1022.7 mb 0.00 in0.0 mm 0.00 in0.0 mm 0.00 in0.0 mm
06:30 AM 22.4°F-5.3°C 17.2°F-8.2°C 80% 2.0 mph WNW3.2 kmh WNW 3.0 mph4.8 kmh 30.20 in1022.7 mb 0.00 in0.0 mm 0.00 in0.0 mm 0.00 in0.0 mm
06:45 AM 22.1°F-5.5°C 17.2°F-8.2°C 81% 3.0 mph WNW4.8 kmh WNW 3.0 mph4.8 kmh 30.21 in1023.0 mb 0.00 in0.0 mm 0.00 in0.0 mm 0.00 in0.0 mm
07:00 AM 21.8°F-5.7°C 17.2°F-8.2°C 82% 2.0 mph WNW3.2 kmh WNW 4.0 mph6.4 kmh 30.22 in1023.4 mb 0.00 in0.0 mm 0.00 in0.0 mm 0.00 in0.0 mm
07:15 AM 21.7°F-5.7°C 17.1°F-8.3°C 82% 2.0 mph WNW3.2 kmh WNW 3.0 mph4.8 kmh 30.22 in1023.4 mb 0.00 in0.0 mm 0.00 in0.0 mm 0.00 in0.0 mm
07:30 AM 21.5°F-5.8°C 17.2°F-8.2°C 83% 2.0 mph WNW3.2 kmh WNW 4.0 mph6.4 kmh 30.23 in1023.7 mb 0.00 in0.0 mm 0.00 in0.0 mm 0.00 in0.0 mm
07:45 AM 21.5°F-5.8°C 17.2°F-8.2°C 83% Calm Calm 4.0 mph6.4 kmh 30.24 in1024.0 mb 0.00 in0.0 mm 0.00 in0.0 mm 0.00 in0.0 mm
08:00 AM 21.4°F-5.9°C 17.3°F-8.2°C 84% 2.0 mph WSW3.2 kmh WSW 3.0 mph4.8 kmh 30.25 in1024.4 mb 0.00 in0.0 mm 0.00 in0.0 mm 0.00 in0.0 mm
08:15 AM 21.2°F-6.0°C 17.1°F-8.3°C 84% Calm Calm 2.0 mph3.2 kmh 30.25 in1024.4 mb 0.00 in0.0 mm 0.00 in0.0 mm 0.00 in0.0 mm
08:30 AM 20.9°F-6.2°C 16.8°F-8.4°C 84% Calm Calm 1.0 mph1.6 kmh 30.27 in1025.1 mb 0.00 in0.0 mm 0.00 in0.0 mm 0.00 in0.0 mm
08:45 AM 21.1°F-6.1°C 17.3°F-8.2°C 85% Calm Calm -- 30.28 in1025.4 mb 0.00 in0.0 mm 0.00 in0.0 mm 0.00 in0.0 mm
09:00 AM 21.3°F-5.9°C 17.2°F-8.2°C 84% 1.0 mph WNW1.6 kmh WNW 2.0 mph3.2 kmh 30.28 in1025.4 mb 0.00 in0.0 mm 0.00 in0.0 mm 0.00 in0.0 mm
09:15 AM 21.6°F-5.8°C 17.8°F-7.9°C 85% 1.0 mph NW1.6 kmh NW 3.0 mph4.8 kmh 30.29 in1025.7 mb 0.00 in0.0 mm 0.00 in0.0 mm 0.00 in0.0 mm
09:30 AM 21.9°F-5.6°C 18.1°F-7.7°C 85% 1.0 mph WSW1.6 kmh WSW 4.0 mph6.4 kmh 30.30 in1026.1 mb 0.00 in0.0 mm 0.00 in0.0 mm 0.00 in0.0 mm
09:45 AM 22.3°F-5.4°C 18.2°F-7.7°C 84% 5.0 mph WSW8.0 kmh WSW 5.0 mph8.0 kmh 30.31 in1026.4 mb 0.00 in0.0 mm 0.00 in0.0 mm 0.00 in0.0 mm
10:00 AM 22.6°F-5.2°C 18.5°F-7.5°C 84% 4.0 mph W6.4 kmh W 6.0 mph9.7 kmh 30.31 in1026.4 mb 0.00 in0.0 mm 0.00 in0.0 mm 0.00 in0.0 mm
10:15 AM 23.6°F-4.7°C 19.2°F-7.1°C 83% 3.0 mph W4.8 kmh W 5.0 mph8.0 kmh 30.32 in1026.8 mb 0.00 in0.0 mm 0.00 in0.0 mm 0.00 in0.0 mm
10:30 AM 24.5°F-4.2°C 19.8°F-6.8°C 82% 3.0 mph W4.8 kmh W 4.0 mph6.4 kmh 30.33 in1027.1 mb 0.00 in0.0 mm 0.00 in0.0 mm 0.00 in0.0 mm
10:45 AM 25.4°F-3.7°C 20.4°F-6.4°C 81% 4.0 mph WSW6.4 kmh WSW 5.0 mph8.0 kmh 30.33 in1027.1 mb 0.00 in0.0 mm 0.00 in0.0 mm 0.00 in0.0 mm
11:00 AM 25.3°F-3.7°C 19.7°F-6.8°C 79% 4.0 mph WSW6.4 kmh WSW 6.0 mph9.7 kmh 30.33 in1027.1 mb 0.00 in0.0 mm 0.00 in0.0 mm 0.00 in0.0 mm
11:15 AM 25.3°F-3.7°C 20.3°F-6.5°C 81% 2.0 mph WSW3.2 kmh WSW 4.0 mph6.4 kmh 30.33 in1027.1 mb 0.00 in0.0 mm 0.00 in0.0 mm 0.00 in0.0 mm
11:30 AM 25.2°F-3.8°C 20.5°F-6.4°C 82% 2.0 mph SW3.2 kmh SW 3.0 mph4.8 kmh 30.34 in1027.4 mb 0.00 in0.0 mm 0.00 in0.0 mm 0.00 in0.0 mm
11:45 AM 26.3°F-3.2°C 21.6°F-5.8°C 82% 2.0 mph SW3.2 kmh SW 5.0 mph8.0 kmh 30.33 in1027.1 mb 0.00 in0.0 mm 0.00 in0.0 mm 0.00 in0.0 mm
12:00 PM 27.1°F-2.7°C 21.8°F-5.7°C 80% 1.0 mph S1.6 kmh S 5.0 mph8.0 kmh 30.34 in1027.4 mb 0.00 in0.0 mm 0.00 in0.0 mm 0.00 in0.0 mm
12:15 PM 28.1°F-2.2°C 22.7°F-5.2°C 80% 4.0 mph S6.4 kmh S 5.0 mph8.0 kmh 30.33 in1027.1 mb 0.00 in0.0 mm 0.00 in0.0 mm 0.00 in0.0 mm
12:30 PM 28.3°F-2.1°C 22.6°F-5.2°C 79% 3.0 mph S4.8 kmh S 5.0 mph8.0 kmh 30.33 in1027.1 mb 0.00 in0.0 mm 0.00 in0.0 mm 0.00 in0.0 mm
12:45 PM 29.3°F-1.5°C 23.3°F-4.8°C 78% 2.0 mph S3.2 kmh S 5.0 mph8.0 kmh 30.33 in1027.1 mb 0.00 in0.0 mm 0.00 in0.0 mm 0.00 in0.0 mm
01:00 PM 29.0°F-1.7°C 23.6°F-4.7°C 80% 4.0 mph S6.4 kmh S 4.0 mph6.4 kmh 30.33 in1027.1 mb 0.00 in0.0 mm 0.00 in0.0 mm 0.00 in0.0 mm
01:15 PM 28.7°F-1.8°C 23.9°F-4.5°C 82% 4.0 mph SSE6.4 kmh SSE 4.0 mph6.4 kmh 30.33 in1027.1 mb 0.00 in0.0 mm 0.00 in0.0 mm 0.00 in0.0 mm
01:30 PM 28.2°F-2.1°C 23.1°F-4.9°C 81% 3.0 mph SSE4.8 kmh SSE 5.0 mph8.0 kmh 30.33 in1027.1 mb 0.00 in0.0 mm 0.00 in0.0 mm 0.00 in0.0 mm
01:45 PM 28.1°F-2.2°C 22.7°F-5.2°C 80% 4.0 mph SSE6.4 kmh SSE 5.0 mph8.0 kmh 30.32 in1026.8 mb 0.00 in0.0 mm 0.00 in0.0 mm 0.00 in0.0 mm
02:00 PM 28.0°F-2.2°C 22.9°F-5.1°C 81% 4.0 mph SE6.4 kmh SE 5.0 mph8.0 kmh 30.32 in1026.8 mb 0.00 in0.0 mm 0.00 in0.0 mm 0.00 in0.0 mm
02:15 PM 27.8°F-2.3°C 23.0°F-5.0°C 82% 4.0 mph SSE6.4 kmh SSE 5.0 mph8.0 kmh 30.31 in1026.4 mb 0.00 in0.0 mm 0.00 in0.0 mm 0.00 in0.0 mm
02:30 PM 30.0°F-1.1°C 22.4°F-5.3°C 73% 9.0 mph NW14.5 kmh NW 9.0 mph14.5 kmh 30.31 in1026.4 mb 0.00 in0.0 mm 0.00 in0.0 mm 0.00 in0.0 mm
02:45 PM 29.8°F-1.2°C 22.5°F-5.3°C 74% 9.0 mph NW14.5 kmh NW 9.0 mph14.5 kmh 30.31 in1026.4 mb 0.00 in0.0 mm 0.00 in0.0 mm 0.00 in0.0 mm
03:00 PM 29.8°F-1.2°C 22.9°F-5.1°C 75% 7.0 mph NW11.3 kmh NW 10.0 mph16.1 kmh 30.31 in1026.4 mb 0.00 in0.0 mm 0.00 in0.0 mm 0.00 in0.0 mm
03:15 PM 29.9°F-1.2°C 23.3°F-4.8°C 76% 9.0 mph WNW14.5 kmh WNW 10.0 mph16.1 kmh 30.32 in1026.8 mb 0.00 in0.0 mm 0.00 in0.0 mm 0.00 in0.0 mm
03:30 PM 30.0°F-1.1°C 23.4°F-4.8°C 76% 10.0 mph WNW16.1 kmh WNW 10.0 mph16.1 kmh 30.32 in1026.8 mb 0.00 in0.0 mm 0.00 in0.0 mm 0.00 in0.0 mm
03:45 PM 30.5°F-0.8°C 23.9°F-4.5°C 76% 2.0 mph WSW3.2 kmh WSW 8.0 mph12.9 kmh 30.33 in1027.1 mb 0.00 in0.0 mm 0.00 in0.0 mm 0.00 in0.0 mm
04:00 PM 26.9°F-2.8°C 22.2°F-5.4°C 82% 3.0 mph ESE4.8 kmh ESE 4.0 mph6.4 kmh 30.33 in1027.1 mb 0.00 in0.0 mm 0.00 in0.0 mm 0.00 in0.0 mm
04:15 PM 25.6°F-3.6°C 21.5°F-5.8°C 84% 3.0 mph ESE4.8 kmh ESE 5.0 mph8.0 kmh 30.33 in1027.1 mb 0.00 in0.0 mm 0.00 in0.0 mm 0.00 in0.0 mm
04:30 PM 25.3°F-3.7°C 21.4°F-5.9°C 85% 3.0 mph E4.8 kmh E 5.0 mph8.0 kmh 30.34 in1027.4 mb 0.00 in0.0 mm 0.00 in0.0 mm 0.00 in0.0 mm
04:45 PM 24.8°F-4.0°C 20.9°F-6.2°C 85% 2.0 mph E3.2 kmh E 5.0 mph8.0 kmh 30.34 in1027.4 mb 0.00 in0.0 mm 0.00 in0.0 mm 0.00 in0.0 mm
05:00 PM 25.0°F-3.9°C 20.9°F-6.2°C 84% 3.0 mph E4.8 kmh E 5.0 mph8.0 kmh 30.35 in1027.8 mb 0.00 in0.0 mm 0.00 in0.0 mm 0.00 in0.0 mm
05:15 PM 24.8°F-4.0°C 20.7°F-6.3°C 84% 2.0 mph E3.2 kmh E 5.0 mph8.0 kmh 30.36 in1028.1 mb 0.00 in0.0 mm 0.00 in0.0 mm 0.00 in0.0 mm
05:30 PM 24.2°F-4.3°C 20.1°F-6.6°C 84% 2.0 mph E3.2 kmh E 5.0 mph8.0 kmh 30.37 in1028.4 mb 0.00 in0.0 mm 0.00 in0.0 mm 0.00 in0.0 mm
05:45 PM 24.2°F-4.3°C 20.4°F-6.4°C 85% 2.0 mph E3.2 kmh E 6.0 mph9.7 kmh 30.36 in1028.1 mb 0.00 in0.0 mm 0.00 in0.0 mm 0.00 in0.0 mm
06:00 PM 24.4°F-4.2°C 20.8°F-6.2°C 86% 3.0 mph E4.8 kmh E 5.0 mph8.0 kmh 30.36 in1028.1 mb 0.00 in0.0 mm 0.00 in0.0 mm 0.00 in0.0 mm
06:15 PM 24.6°F-4.1°C 21.0°F-6.1°C 86% 2.0 mph E3.2 kmh E 6.0 mph9.7 kmh 30.36 in1028.1 mb 0.00 in0.0 mm 0.00 in0.0 mm 0.00 in0.0 mm
06:30 PM 24.9°F-3.9°C 21.3°F-5.9°C 86% 3.0 mph E4.8 kmh E 5.0 mph8.0 kmh 30.36 in1028.1 mb 0.00 in0.0 mm 0.00 in0.0 mm 0.00 in0.0 mm
06:45 PM 24.2°F-4.3°C 20.4°F-6.4°C 85% 2.0 mph E3.2 kmh E 5.0 mph8.0 kmh 30.35 in1027.8 mb 0.00 in0.0 mm 0.00 in0.0 mm 0.00 in0.0 mm
07:00 PM 23.4°F-4.8°C 19.8°F-6.8°C 86% 1.0 mph E1.6 kmh E 5.0 mph8.0 kmh 30.36 in1028.1 mb 0.00 in0.0 mm 0.00 in0.0 mm 0.00 in0.0 mm
07:15 PM 22.7°F-5.2°C 19.2°F-7.1°C 86% 3.0 mph E4.8 kmh E 5.0 mph8.0 kmh 30.36 in1028.1 mb 0.00 in0.0 mm 0.00 in0.0 mm 0.00 in0.0 mm
07:30 PM 22.1°F-5.5°C 18.6°F-7.4°C 86% 5.0 mph ESE8.0 kmh ESE 5.0 mph8.0 kmh 30.35 in1027.8 mb 0.00 in0.0 mm 0.00 in0.0 mm 0.00 in0.0 mm
07:45 PM 22.2°F-5.4°C 19.2°F-7.1°C 88% 4.0 mph ESE6.4 kmh ESE 5.0 mph8.0 kmh 30.35 in1027.8 mb 0.00 in0.0 mm 0.00 in0.0 mm 0.00 in0.0 mm
08:00 PM 22.4°F-5.3°C 19.4°F-7.0°C 88% 4.0 mph ESE6.4 kmh ESE 4.0 mph6.4 kmh 30.35 in1027.8 mb 0.00 in0.0 mm 0.00 in0.0 mm 0.00 in0.0 mm
08:15 PM 22.4°F-5.3°C 19.4°F-7.0°C 88% 4.0 mph E6.4 kmh E 6.0 mph9.7 kmh 30.35 in1027.8 mb 0.00 in0.0 mm 0.00 in0.0 mm 0.00 in0.0 mm
08:30 PM 22.5°F-5.3°C 19.5°F-6.9°C 88% 5.0 mph ESE8.0 kmh ESE 7.0 mph11.3 kmh 30.35 in1027.8 mb 0.00 in0.0 mm 0.00 in0.0 mm 0.00 in0.0 mm
08:45 PM 22.6°F-5.2°C 19.9°F-6.7°C 89% 10.0 mph SE16.1 kmh SE 10.0 mph16.1 kmh 30.36 in1028.1 mb 0.00 in0.0 mm 0.00 in0.0 mm 0.00 in0.0 mm
09:00 PM 23.3°F-4.8°C 20.5°F-6.4°C 89% 8.0 mph ESE12.9 kmh ESE 10.0 mph16.1 kmh 30.35 in1027.8 mb 0.00 in0.0 mm 0.00 in0.0 mm 0.00 in0.0 mm
09:15 PM 23.8°F-4.6°C 21.0°F-6.1°C 89% 8.0 mph SE12.9 kmh SE 9.0 mph14.5 kmh 30.35 in1027.8 mb 0.00 in0.0 mm 0.00 in0.0 mm 0.00 in0.0 mm
09:30 PM 25.6°F-3.6°C 22.8°F-5.1°C 89% 8.0 mph SE12.9 kmh SE 11.0 mph17.7 kmh 30.34 in1027.4 mb 0.00 in0.0 mm 0.00 in0.0 mm 0.00 in0.0 mm
09:45 PM 26.1°F-3.3°C 23.0°F-5.0°C 88% 7.0 mph SE11.3 kmh SE 9.0 mph14.5 kmh 30.35 in1027.8 mb 0.00 in0.0 mm 0.00 in0.0 mm 0.00 in0.0 mm
10:00 PM 26.0°F-3.3°C 22.9°F-5.1°C 88% 7.0 mph SE11.3 kmh SE 9.0 mph14.5 kmh 30.35 in1027.8 mb 0.00 in0.0 mm 0.00 in0.0 mm 0.00 in0.0 mm
10:15 PM 25.8°F-3.4°C 23.0°F-5.0°C 89% 7.0 mph SE11.3 kmh SE 9.0 mph14.5 kmh 30.35 in1027.8 mb 0.00 in0.0 mm 0.00 in0.0 mm 0.00 in0.0 mm
10:30 PM 26.4°F-3.1°C 23.3°F-4.8°C 88% 10.0 mph SE16.1 kmh SE 12.0 mph19.3 kmh 30.34 in1027.4 mb 0.00 in0.0 mm 0.00 in0.0 mm 0.00 in0.0 mm
10:45 PM 26.6°F-3.0°C 23.3°F-4.8°C 87% 7.0 mph SE11.3 kmh SE 12.0 mph19.3 kmh 30.35 in1027.8 mb 0.00 in0.0 mm 0.00 in0.0 mm 0.00 in0.0 mm
11:00 PM 26.9°F-2.8°C 23.8°F-4.6°C 88% 10.0 mph SE16.1 kmh SE 13.0 mph20.9 kmh 30.35 in1027.8 mb 0.00 in0.0 mm 0.00 in0.0 mm 0.00 in0.0 mm
11:15 PM 27.0°F-2.8°C 23.9°F-4.5°C 88% 11.0 mph SE17.7 kmh SE 13.0 mph20.9 kmh 30.34 in1027.4 mb 0.00 in0.0 mm 0.00 in0.0 mm 0.00 in0.0 mm
11:30 PM 27.1°F-2.7°C 24.0°F-4.4°C 88% 12.0 mph SE19.3 kmh SE 13.0 mph20.9 kmh 30.34 in1027.4 mb 0.00 in0.0 mm 0.00 in0.0 mm 0.00 in0.0 mm
11:45 PM 27.1°F-2.7°C 24.0°F-4.4°C 88% 8.0 mph SE12.9 kmh SE 13.0 mph20.9 kmh 30.33 in1027.1 mb 0.00 in0.0 mm 0.00 in0.0 mm 0.00 in0.0 mm